sensor_id;sensor_type;location;lat;lon;timestamp;temperature;humidity
61016;DHT22;46902;52.920;6.536;2023-02-08T00:01:51;0.10;99.90
61016;DHT22;46902;52.920;6.536;2023-02-08T00:04:35;0.10;99.90
61016;DHT22;46902;52.920;6.536;2023-02-08T00:07:01;0.10;99.90
61016;DHT22;46902;52.920;6.536;2023-02-08T00:09:26;0.10;99.90
61016;DHT22;46902;52.920;6.536;2023-02-08T00:11:52;0.10;99.90
61016;DHT22;46902;52.920;6.536;2023-02-08T00:14:18;0.10;99.90
61016;DHT22;46902;52.920;6.536;2023-02-08T00:17:02;0.10;99.90
61016;DHT22;46902;52.920;6.536;2023-02-08T00:19:27;0.00;99.90
61016;DHT22;46902;52.920;6.536;2023-02-08T00:21:53;0.10;99.90
61016;DHT22;46902;52.920;6.536;2023-02-08T00:24:18;0.10;99.90
61016;DHT22;46902;52.920;6.536;2023-02-08T00:26:44;0.00;99.90
61016;DHT22;46902;52.920;6.536;2023-02-08T00:29:10;0.10;99.90
61016;DHT22;46902;52.920;6.536;2023-02-08T00:31:35;0.10;99.90
61016;DHT22;46902;52.920;6.536;2023-02-08T00:34:01;0.00;99.90
61016;DHT22;46902;52.920;6.536;2023-02-08T00:36:26;0.10;99.90
61016;DHT22;46902;52.920;6.536;2023-02-08T00:38:52;0.10;99.90
61016;DHT22;46902;52.920;6.536;2023-02-08T00:41:17;0.10;99.90
61016;DHT22;46902;52.920;6.536;2023-02-08T00:43:43;0.00;99.90
61016;DHT22;46902;52.920;6.536;2023-02-08T00:46:08;0.10;99.90
61016;DHT22;46902;52.920;6.536;2023-02-08T00:48:34;0.10;99.90
61016;DHT22;46902;52.920;6.536;2023-02-08T00:51:01;0.10;99.90
61016;DHT22;46902;52.920;6.536;2023-02-08T00:53:27;0.10;99.90
61016;DHT22;46902;52.920;6.536;2023-02-08T00:56:13;0.10;99.90
61016;DHT22;46902;52.920;6.536;2023-02-08T00:58:39;0.10;99.90
61016;DHT22;46902;52.920;6.536;2023-02-08T01:01:05;0.00;99.90
61016;DHT22;46902;52.920;6.536;2023-02-08T01:03:34;0.10;99.90
61016;DHT22;46902;52.920;6.536;2023-02-08T01:06:04;0.10;99.90
61016;DHT22;46902;52.920;6.536;2023-02-08T01:08:30;0.00;99.90
61016;DHT22;46902;52.920;6.536;2023-02-08T01:13:59;0.00;99.90
61016;DHT22;46902;52.920;6.536;2023-02-08T01:16:27;0.00;99.90
61016;DHT22;46902;52.920;6.536;2023-02-08T01:18:54;0.00;99.90
61016;DHT22;46902;52.920;6.536;2023-02-08T01:21:26;-0.10;99.90
61016;DHT22;46902;52.920;6.536;2023-02-08T01:23:53;-0.10;99.90
61016;DHT22;46902;52.920;6.536;2023-02-08T01:26:20;-0.10;99.90
61016;DHT22;46902;52.920;6.536;2023-02-08T01:28:46;-0.10;99.90
61016;DHT22;46902;52.920;6.536;2023-02-08T01:31:15;-0.10;99.90
61016;DHT22;46902;52.920;6.536;2023-02-08T01:33:41;-0.10;99.90
61016;DHT22;46902;52.920;6.536;2023-02-08T01:36:07;-0.10;99.90
61016;DHT22;46902;52.920;6.536;2023-02-08T01:38:34;-0.10;99.90
61016;DHT22;46902;52.920;6.536;2023-02-08T01:41:01;-0.10;99.90
61016;DHT22;46902;52.920;6.536;2023-02-08T01:43:29;-0.10;99.90
61016;DHT22;46902;52.920;6.536;2023-02-08T01:45:56;-0.10;99.90
61016;DHT22;46902;52.920;6.536;2023-02-08T01:48:26;-0.10;99.90
61016;DHT22;46902;52.920;6.536;2023-02-08T01:51:06;-0.10;99.90
61016;DHT22;46902;52.920;6.536;2023-02-08T01:53:34;0.00;99.90
61016;DHT22;46902;52.920;6.536;2023-02-08T01:56:04;0.00;99.90
61016;DHT22;46902;52.920;6.536;2023-02-08T01:58:32;0.00;99.90
61016;DHT22;46902;52.920;6.536;2023-02-08T02:00:59;0.10;99.90
61016;DHT22;46902;52.920;6.536;2023-02-08T02:03:26;0.10;99.90
61016;DHT22;46902;52.920;6.536;2023-02-08T02:06:02;0.10;99.90
61016;DHT22;46902;52.920;6.536;2023-02-08T02:08:29;0.10;99.90
61016;DHT22;46902;52.920;6.536;2023-02-08T02:10:54;0.10;99.90
61016;DHT22;46902;52.920;6.536;2023-02-08T02:13:22;0.10;99.90
61016;DHT22;46902;52.920;6.536;2023-02-08T02:16:07;0.10;99.90
61016;DHT22;46902;52.920;6.536;2023-02-08T02:18:33;0.10;99.90
61016;DHT22;46902;52.920;6.536;2023-02-08T02:24:17;0.00;99.90
61016;DHT22;46902;52.920;6.536;2023-02-08T02:27:11;0.00;99.90
61016;DHT22;46902;52.920;6.536;2023-02-08T02:29:44;-0.10;99.90
61016;DHT22;46902;52.920;6.536;2023-02-08T02:38:30;-0.10;99.90
61016;DHT22;46902;52.920;6.536;2023-02-08T02:44:12;-0.20;99.90
61016;DHT22;46902;52.920;6.536;2023-02-08T02:46:43;-0.20;99.90
61016;DHT22;46902;52.920;6.536;2023-02-08T02:49:27;-0.20;99.90
61016;DHT22;46902;52.920;6.536;2023-02-08T02:52:11;-0.20;99.90
61016;DHT22;46902;52.920;6.536;2023-02-08T02:55:03;-0.20;99.90
61016;DHT22;46902;52.920;6.536;2023-02-08T02:57:32;-0.20;99.90
61016;DHT22;46902;52.920;6.536;2023-02-08T02:59:58;-0.30;99.90
61016;DHT22;46902;52.920;6.536;2023-02-08T03:02:26;-0.30;99.90
61016;DHT22;46902;52.920;6.536;2023-02-08T03:04:54;-0.30;99.90
61016;DHT22;46902;52.920;6.536;2023-02-08T03:09:51;-0.20;99.90
61016;DHT22;46902;52.920;6.536;2023-02-08T03:12:47;-0.20;99.90
61016;DHT22;46902;52.920;6.536;2023-02-08T03:18:04;-0.20;99.90
61016;DHT22;46902;52.920;6.536;2023-02-08T03:20:42;-0.30;99.90
61016;DHT22;46902;52.920;6.536;2023-02-08T03:23:27;-0.30;99.90
61016;DHT22;46902;52.920;6.536;2023-02-08T03:26:04;-0.20;99.90
61016;DHT22;46902;52.920;6.536;2023-02-08T03:33:46;-0.20;99.90
61016;DHT22;46902;52.920;6.536;2023-02-08T03:36:52;-0.20;99.90
61016;DHT22;46902;52.920;6.536;2023-02-08T03:39:14;-0.30;99.90
61016;DHT22;46902;52.920;6.536;2023-02-08T03:42:01;-0.30;99.90
61016;DHT22;46902;52.920;6.536;2023-02-08T03:44:37;-0.30;99.90
61016;DHT22;46902;52.920;6.536;2023-02-08T03:47:15;-0.30;99.90
61016;DHT22;46902;52.920;6.536;2023-02-08T03:49:42;-0.40;99.90
61016;DHT22;46902;52.920;6.536;2023-02-08T03:52:10;-0.40;99.90
61016;DHT22;46902;52.920;6.536;2023-02-08T03:54:43;-0.30;99.90
61016;DHT22;46902;52.920;6.536;2023-02-08T03:57:25;-0.30;99.90
61016;DHT22;46902;52.920;6.536;2023-02-08T04:00:11;-0.30;99.90
61016;DHT22;46902;52.920;6.536;2023-02-08T04:02:50;-0.30;99.90
61016;DHT22;46902;52.920;6.536;2023-02-08T04:05:35;-0.40;99.90
61016;DHT22;46902;52.920;6.536;2023-02-08T04:08:01;-0.40;99.90
61016;DHT22;46902;52.920;6.536;2023-02-08T04:10:26;-0.50;99.90
61016;DHT22;46902;52.920;6.536;2023-02-08T04:12:52;-0.40;99.90
61016;DHT22;46902;52.920;6.536;2023-02-08T04:15:18;-0.40;99.90
61016;DHT22;46902;52.920;6.536;2023-02-08T04:17:43;-0.40;99.90
61016;DHT22;46902;52.920;6.536;2023-02-08T04:20:09;-0.40;99.90
61016;DHT22;46902;52.920;6.536;2023-02-08T04:22:35;-0.40;99.90
61016;DHT22;46902;52.920;6.536;2023-02-08T04:25:00;-0.50;99.90
61016;DHT22;46902;52.920;6.536;2023-02-08T04:30:11;-0.60;99.90
61016;DHT22;46902;52.920;6.536;2023-02-08T04:32:37;-0.60;99.90
61016;DHT22;46902;52.920;6.536;2023-02-08T04:35:02;-0.50;99.90
61016;DHT22;46902;52.920;6.536;2023-02-08T04:37:28;-0.50;99.90
61016;DHT22;46902;52.920;6.536;2023-02-08T04:39:54;-0.50;99.90
61016;DHT22;46902;52.920;6.536;2023-02-08T04:42:19;-0.40;99.90
61016;DHT22;46902;52.920;6.536;2023-02-08T04:47:29;-0.40;99.90
61016;DHT22;46902;52.920;6.536;2023-02-08T04:49:55;-0.40;99.90
61016;DHT22;46902;52.920;6.536;2023-02-08T04:52:20;-0.50;99.90
61016;DHT22;46902;52.920;6.536;2023-02-08T04:55:05;-0.50;99.90
61016;DHT22;46902;52.920;6.536;2023-02-08T04:57:30;-0.50;99.90
61016;DHT22;46902;52.920;6.536;2023-02-08T05:00:15;-0.50;99.90
61016;DHT22;46902;52.920;6.536;2023-02-08T05:02:40;-0.50;99.90
61016;DHT22;46902;52.920;6.536;2023-02-08T05:05:06;-0.60;99.90
61016;DHT22;46902;52.920;6.536;2023-02-08T05:07:32;-0.50;99.90
61016;DHT22;46902;52.920;6.536;2023-02-08T05:09:57;-0.50;99.90
61016;DHT22;46902;52.920;6.536;2023-02-08T05:12:23;-0.40;99.90
61016;DHT22;46902;52.920;6.536;2023-02-08T05:14:48;-0.40;99.90
61016;DHT22;46902;52.920;6.536;2023-02-08T05:20:17;-0.40;99.90
61016;DHT22;46902;52.920;6.536;2023-02-08T05:22:42;-0.50;99.90
61016;DHT22;46902;52.920;6.536;2023-02-08T05:25:08;-0.50;99.90
61016;DHT22;46902;52.920;6.536;2023-02-08T05:27:34;-0.50;99.90
61016;DHT22;46902;52.920;6.536;2023-02-08T05:30:00;-0.50;99.90
61016;DHT22;46902;52.920;6.536;2023-02-08T05:32:26;-0.60;99.90
61016;DHT22;46902;52.920;6.536;2023-02-08T05:34:52;-0.60;99.90
61016;DHT22;46902;52.920;6.536;2023-02-08T05:37:18;-0.60;99.90
61016;DHT22;46902;52.920;6.536;2023-02-08T05:39:43;-0.60;99.90
61016;DHT22;46902;52.920;6.536;2023-02-08T05:42:15;-0.60;99.90
61016;DHT22;46902;52.920;6.536;2023-02-08T05:44:40;-0.60;99.90
61016;DHT22;46902;52.920;6.536;2023-02-08T05:47:06;-0.60;99.90
61016;DHT22;46902;52.920;6.536;2023-02-08T05:49:31;-0.60;99.90
61016;DHT22;46902;52.920;6.536;2023-02-08T05:51:57;-0.60;99.90
61016;DHT22;46902;52.920;6.536;2023-02-08T05:54:23;-0.60;99.90
61016;DHT22;46902;52.920;6.536;2023-02-08T05:56:48;-0.60;99.90
61016;DHT22;46902;52.920;6.536;2023-02-08T05:59:14;-0.60;99.90
61016;DHT22;46902;52.920;6.536;2023-02-08T06:01:39;-0.60;99.90
61016;DHT22;46902;52.920;6.536;2023-02-08T06:04:05;-0.60;99.90
61016;DHT22;46902;52.920;6.536;2023-02-08T06:06:30;-0.60;99.90
61016;DHT22;46902;52.920;6.536;2023-02-08T06:08:56;-0.60;99.90
61016;DHT22;46902;52.920;6.536;2023-02-08T06:11:22;-0.70;99.90
61016;DHT22;46902;52.920;6.536;2023-02-08T06:13:48;-0.70;99.90
61016;DHT22;46902;52.920;6.536;2023-02-08T06:16:13;-0.80;99.90
61016;DHT22;46902;52.920;6.536;2023-02-08T06:18:39;-0.80;99.90
61016;DHT22;46902;52.920;6.536;2023-02-08T06:21:05;-0.80;99.90
61016;DHT22;46902;52.920;6.536;2023-02-08T06:23:31;-0.80;99.90
61016;DHT22;46902;52.920;6.536;2023-02-08T06:25:56;-0.80;99.90
61016;DHT22;46902;52.920;6.536;2023-02-08T06:28:22;-0.80;99.90
61016;DHT22;46902;52.920;6.536;2023-02-08T06:30:51;-0.80;99.90
61016;DHT22;46902;52.920;6.536;2023-02-08T06:33:17;-0.80;99.90
61016;DHT22;46902;52.920;6.536;2023-02-08T06:35:44;-0.80;99.90
61016;DHT22;46902;52.920;6.536;2023-02-08T06:38:11;-0.80;99.90
61016;DHT22;46902;52.920;6.536;2023-02-08T06:43:21;-0.80;99.90
61016;DHT22;46902;52.920;6.536;2023-02-08T06:45:46;-0.80;99.90
61016;DHT22;46902;52.920;6.536;2023-02-08T06:48:12;-0.80;99.90
61016;DHT22;46902;52.920;6.536;2023-02-08T06:50:38;-0.90;99.90
61016;DHT22;46902;52.920;6.536;2023-02-08T06:53:04;-0.90;99.90
61016;DHT22;46902;52.920;6.536;2023-02-08T06:55:30;-0.80;99.90
61016;DHT22;46902;52.920;6.536;2023-02-08T06:57:55;-0.80;99.90
61016;DHT22;46902;52.920;6.536;2023-02-08T07:03:05;-0.90;99.90
61016;DHT22;46902;52.920;6.536;2023-02-08T07:05:33;-0.90;99.90
61016;DHT22;46902;52.920;6.536;2023-02-08T07:07:59;-0.90;99.90
61016;DHT22;46902;52.920;6.536;2023-02-08T07:10:25;-0.90;99.90
61016;DHT22;46902;52.920;6.536;2023-02-08T07:15:35;-1.00;99.90
61016;DHT22;46902;52.920;6.536;2023-02-08T07:18:00;-1.00;99.90
61016;DHT22;46902;52.920;6.536;2023-02-08T07:20:26;-1.10;99.90
61016;DHT22;46902;52.920;6.536;2023-02-08T07:22:52;-1.10;99.90
61016;DHT22;46902;52.920;6.536;2023-02-08T07:25:17;-1.00;99.90
61016;DHT22;46902;52.920;6.536;2023-02-08T07:27:43;-1.00;99.90
61016;DHT22;46902;52.920;6.536;2023-02-08T07:30:09;-1.10;99.90
61016;DHT22;46902;52.920;6.536;2023-02-08T07:32:35;-1.10;99.90
61016;DHT22;46902;52.920;6.536;2023-02-08T07:35:00;-1.00;99.90
61016;DHT22;46902;52.920;6.536;2023-02-08T07:37:26;-1.00;99.90
61016;DHT22;46902;52.920;6.536;2023-02-08T07:39:52;-0.90;99.90
61016;DHT22;46902;52.920;6.536;2023-02-08T07:42:17;-1.00;99.90
61016;DHT22;46902;52.920;6.536;2023-02-08T07:44:43;-1.00;99.90
61016;DHT22;46902;52.920;6.536;2023-02-08T07:47:09;-0.90;99.90
61016;DHT22;46902;52.920;6.536;2023-02-08T07:52:19;-0.80;99.90
61016;DHT22;46902;52.920;6.536;2023-02-08T07:54:45;-0.90;99.90
61016;DHT22;46902;52.920;6.536;2023-02-08T07:57:10;-0.80;99.90
61016;DHT22;46902;52.920;6.536;2023-02-08T07:59:36;-0.80;99.90
61016;DHT22;46902;52.920;6.536;2023-02-08T08:02:02;-0.70;99.90
61016;DHT22;46902;52.920;6.536;2023-02-08T08:04:27;-0.70;99.90
61016;DHT22;46902;52.920;6.536;2023-02-08T08:06:53;-0.70;99.90
61016;DHT22;46902;52.920;6.536;2023-02-08T08:09:18;-0.60;99.90
61016;DHT22;46902;52.920;6.536;2023-02-08T08:11:45;-0.60;99.90
61016;DHT22;46902;52.920;6.536;2023-02-08T08:14:10;-0.60;99.90
61016;DHT22;46902;52.920;6.536;2023-02-08T08:16:36;-0.60;99.90
61016;DHT22;46902;52.920;6.536;2023-02-08T08:19:01;-0.60;99.90
61016;DHT22;46902;52.920;6.536;2023-02-08T08:21:27;-0.50;99.90
61016;DHT22;46902;52.920;6.536;2023-02-08T08:23:52;-0.40;99.90
61016;DHT22;46902;52.920;6.536;2023-02-08T08:26:20;-0.40;99.90
61016;DHT22;46902;52.920;6.536;2023-02-08T08:28:46;-0.40;99.90
61016;DHT22;46902;52.920;6.536;2023-02-08T08:31:17;-0.30;99.90
61016;DHT22;46902;52.920;6.536;2023-02-08T08:33:43;-0.20;99.90
61016;DHT22;46902;52.920;6.536;2023-02-08T08:36:09;-0.20;99.90
61016;DHT22;46902;52.920;6.536;2023-02-08T08:38:35;-0.20;99.90
61016;DHT22;46902;52.920;6.536;2023-02-08T08:41:11;-0.10;99.90
61016;DHT22;46902;52.920;6.536;2023-02-08T08:46:21;0.00;99.90
61016;DHT22;46902;52.920;6.536;2023-02-08T08:48:46;0.00;99.90
61016;DHT22;46902;52.920;6.536;2023-02-08T08:51:13;0.10;99.90
61016;DHT22;46902;52.920;6.536;2023-02-08T08:53:38;0.10;99.90
61016;DHT22;46902;52.920;6.536;2023-02-08T08:56:23;0.20;99.90
61016;DHT22;46902;52.920;6.536;2023-02-08T08:58:48;0.30;99.90
61016;DHT22;46902;52.920;6.536;2023-02-08T09:01:14;0.30;99.90
61016;DHT22;46902;52.920;6.536;2023-02-08T09:03:39;0.30;99.90
61016;DHT22;46902;52.920;6.536;2023-02-08T09:06:05;0.40;99.90
61016;DHT22;46902;52.920;6.536;2023-02-08T09:08:31;0.50;99.90
61016;DHT22;46902;52.920;6.536;2023-02-08T09:11:03;0.50;99.90
61016;DHT22;46902;52.920;6.536;2023-02-08T09:13:29;0.70;99.90
61016;DHT22;46902;52.920;6.536;2023-02-08T09:15:55;0.70;99.90
61016;DHT22;46902;52.920;6.536;2023-02-08T09:18:20;0.80;99.90
61016;DHT22;46902;52.920;6.536;2023-02-08T09:20:46;0.90;99.90
61016;DHT22;46902;52.920;6.536;2023-02-08T09:23:12;0.90;99.90
61016;DHT22;46902;52.920;6.536;2023-02-08T09:25:39;1.00;99.90
61016;DHT22;46902;52.920;6.536;2023-02-08T09:28:04;1.10;99.90
61016;DHT22;46902;52.920;6.536;2023-02-08T09:30:30;1.20;99.90
61016;DHT22;46902;52.920;6.536;2023-02-08T09:32:56;1.20;99.90
61016;DHT22;46902;52.920;6.536;2023-02-08T09:35:22;1.30;99.90
61016;DHT22;46902;52.920;6.536;2023-02-08T09:37:47;1.30;99.90
61016;DHT22;46902;52.920;6.536;2023-02-08T09:40:23;1.40;99.90
61016;DHT22;46902;52.920;6.536;2023-02-08T09:46:07;1.50;99.90
61016;DHT22;46902;52.920;6.536;2023-02-08T09:48:37;1.60;99.90
61016;DHT22;46902;52.920;6.536;2023-02-08T09:56:41;1.80;99.90
61016;DHT22;46902;52.920;6.536;2023-02-08T09:59:22;1.80;99.90
61016;DHT22;46902;52.920;6.536;2023-02-08T10:01:55;1.90;99.90
61016;DHT22;46902;52.920;6.536;2023-02-08T10:07:09;2.00;99.90
61016;DHT22;46902;52.920;6.536;2023-02-08T10:15:40;2.30;99.90
61016;DHT22;46902;52.920;6.536;2023-02-08T10:26:46;2.70;99.90
61016;DHT22;46902;52.920;6.536;2023-02-08T10:29:41;2.80;99.90
61016;DHT22;46902;52.920;6.536;2023-02-08T10:35:43;3.00;99.40
61016;DHT22;46902;52.920;6.536;2023-02-08T10:37:48;3.10;99.20
61016;DHT22;46902;52.920;6.536;2023-02-08T10:42:53;3.30;98.40
61016;DHT22;46902;52.920;6.536;2023-02-08T10:45:34;3.40;97.70
61016;DHT22;46902;52.920;6.536;2023-02-08T10:48:04;3.50;97.30
61016;DHT22;46902;52.920;6.536;2023-02-08T10:50:38;3.50;97.20
61016;DHT22;46902;52.920;6.536;2023-02-08T10:53:05;3.60;96.30
61016;DHT22;46902;52.920;6.536;2023-02-08T10:55:33;3.70;96.00
61016;DHT22;46902;52.920;6.536;2023-02-08T10:58:03;3.70;95.90
61016;DHT22;46902;52.920;6.536;2023-02-08T11:00:36;3.80;95.70
61016;DHT22;46902;52.920;6.536;2023-02-08T11:03:21;3.90;95.40
61016;DHT22;46902;52.920;6.536;2023-02-08T11:06:09;3.90;94.50
61016;DHT22;46902;52.920;6.536;2023-02-08T11:08:54;4.00;94.20
61016;DHT22;46902;52.920;6.536;2023-02-08T11:11:20;4.10;94.50
61016;DHT22;46902;52.920;6.536;2023-02-08T11:13:47;4.20;94.10
61016;DHT22;46902;52.920;6.536;2023-02-08T11:16:22;4.30;93.60
61016;DHT22;46902;52.920;6.536;2023-02-08T11:18:53;4.40;93.40
61016;DHT22;46902;52.920;6.536;2023-02-08T11:21:22;4.50;92.70
61016;DHT22;46902;52.920;6.536;2023-02-08T11:23:51;4.60;92.60
61016;DHT22;46902;52.920;6.536;2023-02-08T11:26:32;4.90;92.20
61016;DHT22;46902;52.920;6.536;2023-02-08T11:29:02;5.50;91.50
61016;DHT22;46902;52.920;6.536;2023-02-08T11:34:12;9.10;83.90
61016;DHT22;46902;52.920;6.536;2023-02-08T11:36:45;11.00;76.70
61016;DHT22;46902;52.920;6.536;2023-02-08T11:39:23;12.70;69.60
61016;DHT22;46902;52.920;6.536;2023-02-08T11:41:52;13.60;62.90
61016;DHT22;46902;52.920;6.536;2023-02-08T11:44:32;14.20;59.70
61016;DHT22;46902;52.920;6.536;2023-02-08T11:47:01;14.50;56.30
61016;DHT22;46902;52.920;6.536;2023-02-08T11:49:43;14.80;54.20
61016;DHT22;46902;52.920;6.536;2023-02-08T11:52:23;15.30;50.70
61016;DHT22;46902;52.920;6.536;2023-02-08T11:54:50;15.50;50.00
61016;DHT22;46902;52.920;6.536;2023-02-08T11:57:35;16.20;50.70
61016;DHT22;46902;52.920;6.536;2023-02-08T12:00:24;16.50;47.30
61016;DHT22;46902;52.920;6.536;2023-02-08T12:02:57;16.90;47.40
61016;DHT22;46902;52.920;6.536;2023-02-08T12:05:42;17.30;46.90
61016;DHT22;46902;52.920;6.536;2023-02-08T12:11:28;17.90;43.90
61016;DHT22;46902;52.920;6.536;2023-02-08T12:22:28;18.80;42.90
61016;DHT22;46902;52.920;6.536;2023-02-08T12:25:21;19.10;42.60
61016;DHT22;46902;52.920;6.536;2023-02-08T12:30:42;19.60;41.30
61016;DHT22;46902;52.920;6.536;2023-02-08T12:39:36;20.00;36.80
61016;DHT22;46902;52.920;6.536;2023-02-08T12:43:21;19.50;37.10
61016;DHT22;46902;52.920;6.536;2023-02-08T12:48:39;19.40;37.00
61016;DHT22;46902;52.920;6.536;2023-02-08T12:51:10;19.20;36.40
61016;DHT22;46902;52.920;6.536;2023-02-08T12:54:08;19.10;37.10
61016;DHT22;46902;52.920;6.536;2023-02-08T12:56:39;18.80;37.60
61016;DHT22;46902;52.920;6.536;2023-02-08T12:59:10;18.80;37.50
61016;DHT22;46902;52.920;6.536;2023-02-08T13:01:43;18.70;37.00
61016;DHT22;46902;52.920;6.536;2023-02-08T13:04:32;18.50;36.60
61016;DHT22;46902;52.920;6.536;2023-02-08T13:07:24;18.40;36.50
61016;DHT22;46902;52.920;6.536;2023-02-08T13:10:10;18.50;36.90
61016;DHT22;46902;52.920;6.536;2023-02-08T13:12:42;18.60;37.10
61016;DHT22;46902;52.920;6.536;2023-02-08T13:15:19;18.90;36.00
61016;DHT22;46902;52.920;6.536;2023-02-08T13:17:52;19.10;36.00
61016;DHT22;46902;52.920;6.536;2023-02-08T13:20:55;18.50;35.60
61016;DHT22;46902;52.920;6.536;2023-02-08T13:25:47;18.50;35.90
61016;DHT22;46902;52.920;6.536;2023-02-08T13:28:20;18.40;36.40
61016;DHT22;46902;52.920;6.536;2023-02-08T13:30:57;18.40;35.80
61016;DHT22;46902;52.920;6.536;2023-02-08T13:33:45;18.10;35.60
61016;DHT22;46902;52.920;6.536;2023-02-08T13:36:24;18.00;35.70
61016;DHT22;46902;52.920;6.536;2023-02-08T13:38:51;17.80;35.70
61016;DHT22;46902;52.920;6.536;2023-02-08T13:41:19;17.40;35.90
61016;DHT22;46902;52.920;6.536;2023-02-08T13:43:57;17.30;36.30
61016;DHT22;46902;52.920;6.536;2023-02-08T13:46:26;17.20;35.50
61016;DHT22;46902;52.920;6.536;2023-02-08T13:48:55;17.10;36.20
61016;DHT22;46902;52.920;6.536;2023-02-08T13:59:28;16.60;37.10
61016;DHT22;46902;52.920;6.536;2023-02-08T14:02:24;16.60;37.40
61016;DHT22;46902;52.920;6.536;2023-02-08T14:04:53;16.30;37.50
61016;DHT22;46902;52.920;6.536;2023-02-08T14:07:41;16.20;38.20
61016;DHT22;46902;52.920;6.536;2023-02-08T14:10:38;15.60;38.00
61016;DHT22;46902;52.920;6.536;2023-02-08T14:13:28;15.10;39.70
61016;DHT22;46902;52.920;6.536;2023-02-08T14:18:53;14.70;39.70
61016;DHT22;46902;52.920;6.536;2023-02-08T14:21:31;14.40;40.40
61016;DHT22;46902;52.920;6.536;2023-02-08T14:24:03;14.10;39.80
61016;DHT22;46902;52.920;6.536;2023-02-08T14:26:29;13.80;40.80
61016;DHT22;46902;52.920;6.536;2023-02-08T14:28:59;13.60;41.80
61016;DHT22;46902;52.920;6.536;2023-02-08T14:31:37;13.40;41.80
61016;DHT22;46902;52.920;6.536;2023-02-08T14:34:05;13.20;40.80
61016;DHT22;46902;52.920;6.536;2023-02-08T14:36:33;12.80;41.60
61016;DHT22;46902;52.920;6.536;2023-02-08T14:39:19;12.60;42.30
61016;DHT22;46902;52.920;6.536;2023-02-08T14:41:47;12.40;42.30
61016;DHT22;46902;52.920;6.536;2023-02-08T14:50:16;11.80;43.00
61016;DHT22;46902;52.920;6.536;2023-02-08T14:52:51;12.00;42.60
61016;DHT22;46902;52.920;6.536;2023-02-08T14:55:22;12.10;43.20
61016;DHT22;46902;52.920;6.536;2023-02-08T15:00:37;11.50;43.00
61016;DHT22;46902;52.920;6.536;2023-02-08T15:03:06;11.20;44.50
61016;DHT22;46902;52.920;6.536;2023-02-08T15:06:15;10.90;44.50
61016;DHT22;46902;52.920;6.536;2023-02-08T15:08:51;10.70;44.90
61016;DHT22;46902;52.920;6.536;2023-02-08T15:11:27;10.30;45.00
61016;DHT22;46902;52.920;6.536;2023-02-08T15:13:56;10.20;45.70
61016;DHT22;46902;52.920;6.536;2023-02-08T15:16:42;10.00;45.70
61016;DHT22;46902;52.920;6.536;2023-02-08T15:19:08;9.80;45.60
61016;DHT22;46902;52.920;6.536;2023-02-08T15:21:41;9.70;46.40
61016;DHT22;46902;52.920;6.536;2023-02-08T15:24:23;9.50;46.10
61016;DHT22;46902;52.920;6.536;2023-02-08T15:26:55;9.30;46.20
61016;DHT22;46902;52.920;6.536;2023-02-08T15:29:23;9.20;46.50
61016;DHT22;46902;52.920;6.536;2023-02-08T15:31:49;9.10;46.40
61016;DHT22;46902;52.920;6.536;2023-02-08T15:34:18;8.90;46.50
61016;DHT22;46902;52.920;6.536;2023-02-08T15:36:48;8.90;47.10
61016;DHT22;46902;52.920;6.536;2023-02-08T15:39:23;8.70;46.90
61016;DHT22;46902;52.920;6.536;2023-02-08T15:41:49;8.60;47.10
61016;DHT22;46902;52.920;6.536;2023-02-08T15:44:23;8.50;47.10
61016;DHT22;46902;52.920;6.536;2023-02-08T15:46:50;8.50;46.40
61016;DHT22;46902;52.920;6.536;2023-02-08T15:49:21;8.40;47.40
61016;DHT22;46902;52.920;6.536;2023-02-08T15:51:48;8.30;47.30
61016;DHT22;46902;52.920;6.536;2023-02-08T15:54:18;8.30;47.30
61016;DHT22;46902;52.920;6.536;2023-02-08T15:57:15;8.20;48.00
61016;DHT22;46902;52.920;6.536;2023-02-08T15:59:44;8.20;47.20
61016;DHT22;46902;52.920;6.536;2023-02-08T16:02:32;8.00;48.00
61016;DHT22;46902;52.920;6.536;2023-02-08T16:04:59;8.00;47.20
61016;DHT22;46902;52.920;6.536;2023-02-08T16:07:52;7.90;48.20
61016;DHT22;46902;52.920;6.536;2023-02-08T16:12:52;7.80;48.70
61016;DHT22;46902;52.920;6.536;2023-02-08T16:15:52;7.80;49.20
61016;DHT22;46902;52.920;6.536;2023-02-08T16:18:43;7.80;48.90
61016;DHT22;46902;52.920;6.536;2023-02-08T16:29:29;7.40;51.10
61016;DHT22;46902;52.920;6.536;2023-02-08T16:32:28;7.30;51.70
61016;DHT22;46902;52.920;6.536;2023-02-08T16:34:55;7.30;50.60
61016;DHT22;46902;52.920;6.536;2023-02-08T16:37:34;7.20;51.80
61016;DHT22;46902;52.920;6.536;2023-02-08T16:40:02;7.10;51.40
61016;DHT22;46902;52.920;6.536;2023-02-08T16:45:16;7.00;51.40
61016;DHT22;46902;52.920;6.536;2023-02-08T16:48:01;6.90;51.40
61016;DHT22;46902;52.920;6.536;2023-02-08T16:50:27;6.90;51.60
61016;DHT22;46902;52.920;6.536;2023-02-08T16:52:58;6.80;51.90
61016;DHT22;46902;52.920;6.536;2023-02-08T16:55:27;6.80;52.00
61016;DHT22;46902;52.920;6.536;2023-02-08T16:57:55;6.70;53.30
61016;DHT22;46902;52.920;6.536;2023-02-08T17:03:05;6.50;53.30
61016;DHT22;46902;52.920;6.536;2023-02-08T17:05:35;6.40;54.70
61016;DHT22;46902;52.920;6.536;2023-02-08T17:08:03;6.40;54.90
61016;DHT22;46902;52.920;6.536;2023-02-08T17:10:32;6.30;55.50
61016;DHT22;46902;52.920;6.536;2023-02-08T17:12:59;6.20;56.30
61016;DHT22;46902;52.920;6.536;2023-02-08T17:15:25;6.10;56.70
61016;DHT22;46902;52.920;6.536;2023-02-08T17:17:52;6.10;56.80
61016;DHT22;46902;52.920;6.536;2023-02-08T17:20:23;6.00;57.00
61016;DHT22;46902;52.920;6.536;2023-02-08T17:22:51;5.90;57.20
61016;DHT22;46902;52.920;6.536;2023-02-08T17:25:35;5.80;56.90
61016;DHT22;46902;52.920;6.536;2023-02-08T17:28:05;5.70;56.70
61016;DHT22;46902;52.920;6.536;2023-02-08T17:30:35;5.70;56.80
61016;DHT22;46902;52.920;6.536;2023-02-08T17:33:04;5.70;56.80
61016;DHT22;46902;52.920;6.536;2023-02-08T17:35:34;5.60;56.90
61016;DHT22;46902;52.920;6.536;2023-02-08T17:38:02;5.60;57.30
61016;DHT22;46902;52.920;6.536;2023-02-08T17:40:34;5.50;57.70
61016;DHT22;46902;52.920;6.536;2023-02-08T17:43:00;5.50;57.10
61016;DHT22;46902;52.920;6.536;2023-02-08T17:45:27;5.40;57.00
61016;DHT22;46902;52.920;6.536;2023-02-08T17:47:54;5.50;57.10
61016;DHT22;46902;52.920;6.536;2023-02-08T17:50:20;5.50;57.50
61016;DHT22;46902;52.920;6.536;2023-02-08T17:52:47;5.40;57.50
61016;DHT22;46902;52.920;6.536;2023-02-08T17:55:14;5.40;57.00
61016;DHT22;46902;52.920;6.536;2023-02-08T17:57:41;5.40;56.70
61016;DHT22;46902;52.920;6.536;2023-02-08T18:00:15;5.40;56.50
61016;DHT22;46902;52.920;6.536;2023-02-08T18:02:47;5.40;56.50
61016;DHT22;46902;52.920;6.536;2023-02-08T18:05:18;5.40;56.80
61016;DHT22;46902;52.920;6.536;2023-02-08T18:07:44;5.30;56.80
61016;DHT22;46902;52.920;6.536;2023-02-08T18:10:12;5.20;57.00
61016;DHT22;46902;52.920;6.536;2023-02-08T18:12:38;5.30;56.40
61016;DHT22;46902;52.920;6.536;2023-02-08T18:15:05;5.20;56.60
61016;DHT22;46902;52.920;6.536;2023-02-08T18:17:31;5.20;56.60
61016;DHT22;46902;52.920;6.536;2023-02-08T18:20:21;5.10;56.40
61016;DHT22;46902;52.920;6.536;2023-02-08T18:22:47;5.10;56.40
61016;DHT22;46902;52.920;6.536;2023-02-08T18:25:13;5.10;56.70
61016;DHT22;46902;52.920;6.536;2023-02-08T18:27:40;5.00;56.70